sensor_id;sensor_type;location;lat;lon;timestamp;temperature;humidity
36244;DHT22;22284;49.956;19.816;2022-08-19T00:02:42;21.01;78.35
36244;DHT22;22284;49.956;19.816;2022-08-19T00:05:43;20.97;79.21
36244;DHT22;22284;49.956;19.816;2022-08-19T00:08:44;20.96;78.46
36244;DHT22;22284;49.956;19.816;2022-08-19T00:11:46;20.93;78.72
36244;DHT22;22284;49.956;19.816;2022-08-19T00:14:47;20.92;78.84
36244;DHT22;22284;49.956;19.816;2022-08-19T00:17:48;20.92;79.10
36244;DHT22;22284;49.956;19.816;2022-08-19T00:20:50;20.90;79.21
36244;DHT22;22284;49.956;19.816;2022-08-19T00:23:53;20.87;79.29
36244;DHT22;22284;49.956;19.816;2022-08-19T00:26:55;20.86;79.42
36244;DHT22;22284;49.956;19.816;2022-08-19T00:29:57;20.84;79.66
36244;DHT22;22284;49.956;19.816;2022-08-19T00:32:59;20.83;79.73
36244;DHT22;22284;49.956;19.816;2022-08-19T00:36:03;20.83;79.66
36244;DHT22;22284;49.956;19.816;2022-08-19T00:39:06;20.79;79.40
36244;DHT22;22284;49.956;19.816;2022-08-19T00:42:07;20.72;79.37
36244;DHT22;22284;49.956;19.816;2022-08-19T00:45:14;20.65;79.56
36244;DHT22;22284;49.956;19.816;2022-08-19T00:48:17;20.59;79.80
36244;DHT22;22284;49.956;19.816;2022-08-19T00:51:18;20.49;79.85
36244;DHT22;22284;49.956;19.816;2022-08-19T00:54:20;20.44;79.98
36244;DHT22;22284;49.956;19.816;2022-08-19T00:57:26;20.34;80.07
36244;DHT22;22284;49.956;19.816;2022-08-19T01:00:28;20.31;79.97
36244;DHT22;22284;49.956;19.816;2022-08-19T01:03:30;20.28;80.11
36244;DHT22;22284;49.956;19.816;2022-08-19T01:06:32;20.23;80.31
36244;DHT22;22284;49.956;19.816;2022-08-19T01:09:33;20.20;80.39
36244;DHT22;22284;49.956;19.816;2022-08-19T01:12:34;20.16;80.51
36244;DHT22;22284;49.956;19.816;2022-08-19T01:15:45;20.10;80.69
36244;DHT22;22284;49.956;19.816;2022-08-19T01:18:46;20.07;80.75
36244;DHT22;22284;49.956;19.816;2022-08-19T01:25:06;20.00;80.92
36244;DHT22;22284;49.956;19.816;2022-08-19T01:28:08;19.99;81.11
36244;DHT22;22284;49.956;19.816;2022-08-19T01:31:19;19.99;81.20
36244;DHT22;22284;49.956;19.816;2022-08-19T01:34:21;19.97;81.33
36244;DHT22;22284;49.956;19.816;2022-08-19T01:37:23;19.94;81.36
36244;DHT22;22284;49.956;19.816;2022-08-19T01:40:29;19.94;81.40
36244;DHT22;22284;49.956;19.816;2022-08-19T01:43:33;19.89;81.23
36244;DHT22;22284;49.956;19.816;2022-08-19T01:46:34;19.83;81.15
36244;DHT22;22284;49.956;19.816;2022-08-19T01:49:36;19.76;81.18
36244;DHT22;22284;49.956;19.816;2022-08-19T01:52:40;19.76;81.21
36244;DHT22;22284;49.956;19.816;2022-08-19T01:55:43;19.72;81.31
36244;DHT22;22284;49.956;19.816;2022-08-19T01:58:52;19.72;81.36
36244;DHT22;22284;49.956;19.816;2022-08-19T02:01:53;19.68;81.44
36244;DHT22;22284;49.956;19.816;2022-08-19T02:04:54;19.66;81.52
36244;DHT22;22284;49.956;19.816;2022-08-19T02:07:57;19.68;81.60
36244;DHT22;22284;49.956;19.816;2022-08-19T02:10:58;19.64;81.60
36244;DHT22;22284;49.956;19.816;2022-08-19T02:14:01;19.66;81.67
36244;DHT22;22284;49.956;19.816;2022-08-19T02:17:03;19.65;81.79
36244;DHT22;22284;49.956;19.816;2022-08-19T02:20:06;19.64;81.94
36244;DHT22;22284;49.956;19.816;2022-08-19T02:23:09;19.61;81.96
36244;DHT22;22284;49.956;19.816;2022-08-19T02:26:11;19.58;81.94
36244;DHT22;22284;49.956;19.816;2022-08-19T02:29:12;19.58;81.94
36244;DHT22;22284;49.956;19.816;2022-08-19T02:32:13;19.52;81.84
36244;DHT22;22284;49.956;19.816;2022-08-19T02:35:15;19.44;81.63
36244;DHT22;22284;49.956;19.816;2022-08-19T02:38:16;19.44;81.57
36244;DHT22;22284;49.956;19.816;2022-08-19T02:41:30;19.41;81.59
36244;DHT22;22284;49.956;19.816;2022-08-19T02:44:31;19.41;81.66
36244;DHT22;22284;49.956;19.816;2022-08-19T02:47:32;19.35;81.67
36244;DHT22;22284;49.956;19.816;2022-08-19T02:50:39;19.35;81.84
36244;DHT22;22284;49.956;19.816;2022-08-19T02:53:40;19.34;81.86
36244;DHT22;22284;49.956;19.816;2022-08-19T02:56:43;19.31;81.84
36244;DHT22;22284;49.956;19.816;2022-08-19T02:59:44;19.31;81.88
36244;DHT22;22284;49.956;19.816;2022-08-19T03:02:45;19.27;81.93
36244;DHT22;22284;49.956;19.816;2022-08-19T03:05:47;19.20;81.98
36244;DHT22;22284;49.956;19.816;2022-08-19T03:08:49;19.19;81.83
36244;DHT22;22284;49.956;19.816;2022-08-19T03:11:50;19.19;81.84
36244;DHT22;22284;49.956;19.816;2022-08-19T03:14:51;19.17;81.84
36244;DHT22;22284;49.956;19.816;2022-08-19T03:17:53;19.17;81.90
36244;DHT22;22284;49.956;19.816;2022-08-19T03:20:55;19.19;81.97
36244;DHT22;22284;49.956;19.816;2022-08-19T03:24:00;19.17;81.95
36244;DHT22;22284;49.956;19.816;2022-08-19T03:27:01;19.15;81.94
36244;DHT22;22284;49.956;19.816;2022-08-19T03:30:06;19.14;81.98
36244;DHT22;22284;49.956;19.816;2022-08-19T03:33:09;19.11;82.00
36244;DHT22;22284;49.956;19.816;2022-08-19T03:36:15;19.11;82.06
36244;DHT22;22284;49.956;19.816;2022-08-19T03:39:16;19.11;82.07
36244;DHT22;22284;49.956;19.816;2022-08-19T03:42:18;19.11;82.10
36244;DHT22;22284;49.956;19.816;2022-08-19T03:45:19;19.09;82.02
36244;DHT22;22284;49.956;19.816;2022-08-19T03:48:20;19.10;81.97
36244;DHT22;22284;49.956;19.816;2022-08-19T03:51:28;19.10;82.03
36244;DHT22;22284;49.956;19.816;2022-08-19T03:54:31;19.11;82.01
36244;DHT22;22284;49.956;19.816;2022-08-19T03:57:33;19.10;82.05
36244;DHT22;22284;49.956;19.816;2022-08-19T04:00:35;19.13;82.36
36244;DHT22;22284;49.956;19.816;2022-08-19T04:03:38;19.10;82.00
36244;DHT22;22284;49.956;19.816;2022-08-19T04:06:40;19.13;82.15
36244;DHT22;22284;49.956;19.816;2022-08-19T04:09:41;19.15;82.31
36244;DHT22;22284;49.956;19.816;2022-08-19T04:12:42;19.15;82.33
36244;DHT22;22284;49.956;19.816;2022-08-19T04:15:45;19.19;82.32
36244;DHT22;22284;49.956;19.816;2022-08-19T04:18:48;19.20;82.27
36244;DHT22;22284;49.956;19.816;2022-08-19T04:21:52;19.24;82.26
36244;DHT22;22284;49.956;19.816;2022-08-19T04:24:54;19.29;82.25
36244;DHT22;22284;49.956;19.816;2022-08-19T04:27:55;19.29;82.33
36244;DHT22;22284;49.956;19.816;2022-08-19T04:30:56;19.30;82.32
36244;DHT22;22284;49.956;19.816;2022-08-19T04:33:59;19.37;82.30
36244;DHT22;22284;49.956;19.816;2022-08-19T04:37:00;19.40;82.30
36244;DHT22;22284;49.956;19.816;2022-08-19T04:40:05;19.45;82.31
36244;DHT22;22284;49.956;19.816;2022-08-19T04:43:26;19.48;82.19
36244;DHT22;22284;49.956;19.816;2022-08-19T04:46:27;19.51;82.20
36244;DHT22;22284;49.956;19.816;2022-08-19T04:49:29;19.55;82.05
36244;DHT22;22284;49.956;19.816;2022-08-19T04:52:31;19.55;82.00
36244;DHT22;22284;49.956;19.816;2022-08-19T04:55:32;19.55;82.01
36244;DHT22;22284;49.956;19.816;2022-08-19T04:58:35;19.59;81.99
36244;DHT22;22284;49.956;19.816;2022-08-19T05:01:36;19.65;82.28
36244;DHT22;22284;49.956;19.816;2022-08-19T05:04:37;19.72;82.03
36244;DHT22;22284;49.956;19.816;2022-08-19T05:07:40;19.77;82.10
36244;DHT22;22284;49.956;19.816;2022-08-19T05:10:41;19.86;82.43
36244;DHT22;22284;49.956;19.816;2022-08-19T05:13:44;19.90;82.51
36244;DHT22;22284;49.956;19.816;2022-08-19T05:16:45;19.94;82.41
36244;DHT22;22284;49.956;19.816;2022-08-19T05:19:46;20.04;82.43
36244;DHT22;22284;49.956;19.816;2022-08-19T05:23:06;20.11;82.42
36244;DHT22;22284;49.956;19.816;2022-08-19T05:26:07;20.17;82.45
36244;DHT22;22284;49.956;19.816;2022-08-19T05:29:09;20.25;82.41
36244;DHT22;22284;49.956;19.816;2022-08-19T05:32:10;20.31;82.44
36244;DHT22;22284;49.956;19.816;2022-08-19T05:35:12;20.41;82.36
36244;DHT22;22284;49.956;19.816;2022-08-19T05:38:13;20.45;82.26
36244;DHT22;22284;49.956;19.816;2022-08-19T05:41:14;20.51;82.16
36244;DHT22;22284;49.956;19.816;2022-08-19T05:44:17;20.58;82.20
36244;DHT22;22284;49.956;19.816;2022-08-19T05:47:19;20.62;82.31
36244;DHT22;22284;49.956;19.816;2022-08-19T05:50:21;20.72;82.52
36244;DHT22;22284;49.956;19.816;2022-08-19T05:53:23;20.78;82.80
36244;DHT22;22284;49.956;19.816;2022-08-19T05:56:24;20.86;82.74
36244;DHT22;22284;49.956;19.816;2022-08-19T05:59:25;20.93;82.82
36244;DHT22;22284;49.956;19.816;2022-08-19T06:02:28;21.01;82.87
36244;DHT22;22284;49.956;19.816;2022-08-19T06:05:31;21.10;82.97
36244;DHT22;22284;49.956;19.816;2022-08-19T06:08:32;21.18;83.08
36244;DHT22;22284;49.956;19.816;2022-08-19T06:11:41;21.28;83.26
36244;DHT22;22284;49.956;19.816;2022-08-19T06:14:44;21.38;83.32
36244;DHT22;22284;49.956;19.816;2022-08-19T06:17:45;21.49;83.37
36244;DHT22;22284;49.956;19.816;2022-08-19T06:20:46;21.59;83.40
36244;DHT22;22284;49.956;19.816;2022-08-19T06:23:47;21.66;83.49
36244;DHT22;22284;49.956;19.816;2022-08-19T06:26:49;21.76;83.47
36244;DHT22;22284;49.956;19.816;2022-08-19T06:29:52;21.88;83.49
36244;DHT22;22284;49.956;19.816;2022-08-19T06:32:54;21.96;83.44
36244;DHT22;22284;49.956;19.816;2022-08-19T06:35:55;22.06;83.25
36244;DHT22;22284;49.956;19.816;2022-08-19T06:39:00;22.18;83.17
36244;DHT22;22284;49.956;19.816;2022-08-19T06:42:03;22.27;82.86
36244;DHT22;22284;49.956;19.816;2022-08-19T06:45:07;22.39;82.52
36244;DHT22;22284;49.956;19.816;2022-08-19T06:48:09;22.54;82.39
36244;DHT22;22284;49.956;19.816;2022-08-19T06:51:10;22.66;82.18
36244;DHT22;22284;49.956;19.816;2022-08-19T06:54:11;22.76;81.58
36244;DHT22;22284;49.956;19.816;2022-08-19T06:57:12;22.90;81.27
36244;DHT22;22284;49.956;19.816;2022-08-19T07:00:15;23.04;81.01
36244;DHT22;22284;49.956;19.816;2022-08-19T07:03:16;23.14;80.83
36244;DHT22;22284;49.956;19.816;2022-08-19T07:06:19;23.24;80.53
36244;DHT22;22284;49.956;19.816;2022-08-19T07:09:21;23.37;80.27
36244;DHT22;22284;49.956;19.816;2022-08-19T07:12:22;23.44;80.17
36244;DHT22;22284;49.956;19.816;2022-08-19T07:15:23;23.56;79.92
36244;DHT22;22284;49.956;19.816;2022-08-19T07:18:24;23.63;79.79
36244;DHT22;22284;49.956;19.816;2022-08-19T07:21:27;23.73;79.67
36244;DHT22;22284;49.956;19.816;2022-08-19T07:24:30;23.87;79.49
36244;DHT22;22284;49.956;19.816;2022-08-19T07:27:31;24.00;79.02
36244;DHT22;22284;49.956;19.816;2022-08-19T07:30:32;24.11;78.48
36244;DHT22;22284;49.956;19.816;2022-08-19T07:33:35;24.27;78.39
36244;DHT22;22284;49.956;19.816;2022-08-19T07:36:40;24.37;78.03
36244;DHT22;22284;49.956;19.816;2022-08-19T07:39:42;24.51;77.94
36244;DHT22;22284;49.956;19.816;2022-08-19T07:42:43;24.63;77.92
36244;DHT22;22284;49.956;19.816;2022-08-19T07:45:44;24.86;77.48
36244;DHT22;22284;49.956;19.816;2022-08-19T07:48:48;25.00;77.33
36244;DHT22;22284;49.956;19.816;2022-08-19T07:52:04;25.13;76.99
36244;DHT22;22284;49.956;19.816;2022-08-19T07:55:08;25.25;76.91
36244;DHT22;22284;49.956;19.816;2022-08-19T07:58:14;25.41;76.40
36244;DHT22;22284;49.956;19.816;2022-08-19T08:01:23;25.56;75.89
36244;DHT22;22284;49.956;19.816;2022-08-19T08:04:24;25.69;75.60
36244;DHT22;22284;49.956;19.816;2022-08-19T08:07:44;25.83;75.50
36244;DHT22;22284;49.956;19.816;2022-08-19T08:11:05;25.97;75.31
36244;DHT22;22284;49.956;19.816;2022-08-19T08:14:07;26.09;75.15
36244;DHT22;22284;49.956;19.816;2022-08-19T08:17:11;26.24;75.01
36244;DHT22;22284;49.956;19.816;2022-08-19T08:20:14;26.36;74.86
36244;DHT22;22284;49.956;19.816;2022-08-19T08:23:15;26.49;74.73
36244;DHT22;22284;49.956;19.816;2022-08-19T08:26:27;26.59;74.34
36244;DHT22;22284;49.956;19.816;2022-08-19T08:29:30;26.70;73.76
36244;DHT22;22284;49.956;19.816;2022-08-19T08:32:32;26.83;73.22
36244;DHT22;22284;49.956;19.816;2022-08-19T08:35:33;26.94;73.03
36244;DHT22;22284;49.956;19.816;2022-08-19T08:38:35;27.05;72.88
36244;DHT22;22284;49.956;19.816;2022-08-19T08:42:09;27.15;72.58
36244;DHT22;22284;49.956;19.816;2022-08-19T08:45:13;27.28;72.31
36244;DHT22;22284;49.956;19.816;2022-08-19T08:52:25;27.46;71.32
36244;DHT22;22284;49.956;19.816;2022-08-19T08:55:29;27.58;70.70
36244;DHT22;22284;49.956;19.816;2022-08-19T09:01:46;27.79;70.61
36244;DHT22;22284;49.956;19.816;2022-08-19T09:04:47;27.87;70.07
36244;DHT22;22284;49.956;19.816;2022-08-19T09:08:07;27.94;69.52
36244;DHT22;22284;49.956;19.816;2022-08-19T09:11:11;28.01;69.45
36244;DHT22;22284;49.956;19.816;2022-08-19T09:17:30;28.18;69.25
36244;DHT22;22284;49.956;19.816;2022-08-19T09:20:33;28.28;69.08
36244;DHT22;22284;49.956;19.816;2022-08-19T09:23:36;28.38;68.84
36244;DHT22;22284;49.956;19.816;2022-08-19T09:26:37;28.45;67.49
36244;DHT22;22284;49.956;19.816;2022-08-19T09:29:38;28.56;67.46
36244;DHT22;22284;49.956;19.816;2022-08-19T09:32:39;28.63;66.99
36244;DHT22;22284;49.956;19.816;2022-08-19T09:35:42;28.74;65.67
36244;DHT22;22284;49.956;19.816;2022-08-19T09:38:44;28.83;65.78
36244;DHT22;22284;49.956;19.816;2022-08-19T09:46:04;29.08;64.79
36244;DHT22;22284;49.956;19.816;2022-08-19T09:49:07;29.15;64.79
36244;DHT22;22284;49.956;19.816;2022-08-19T09:52:09;29.28;64.61
36244;DHT22;22284;49.956;19.816;2022-08-19T09:55:12;29.32;64.78
36244;DHT22;22284;49.956;19.816;2022-08-19T09:58:13;29.39;64.19
36244;DHT22;22284;49.956;19.816;2022-08-19T10:01:23;29.46;63.06
36244;DHT22;22284;49.956;19.816;2022-08-19T10:04:25;29.53;63.16
36244;DHT22;22284;49.956;19.816;2022-08-19T10:07:29;29.60;62.75
36244;DHT22;22284;49.956;19.816;2022-08-19T10:10:35;29.67;62.56
36244;DHT22;22284;49.956;19.816;2022-08-19T10:13:36;29.76;61.99
36244;DHT22;22284;49.956;19.816;2022-08-19T10:16:37;29.84;61.68
36244;DHT22;22284;49.956;19.816;2022-08-19T10:19:40;29.94;61.05
36244;DHT22;22284;49.956;19.816;2022-08-19T10:22:41;30.04;60.68
36244;DHT22;22284;49.956;19.816;2022-08-19T10:25:43;30.12;60.19
36244;DHT22;22284;49.956;19.816;2022-08-19T10:28:44;30.18;59.91
36244;DHT22;22284;49.956;19.816;2022-08-19T10:31:45;30.17;60.04
36244;DHT22;22284;49.956;19.816;2022-08-19T10:34:48;30.17;60.24
36244;DHT22;22284;49.956;19.816;2022-08-19T10:37:50;30.21;60.65
36244;DHT22;22284;49.956;19.816;2022-08-19T10:40:51;30.24;60.31
36244;DHT22;22284;49.956;19.816;2022-08-19T10:43:55;30.24;59.98
36244;DHT22;22284;49.956;19.816;2022-08-19T10:46:57;30.32;59.48
36244;DHT22;22284;49.956;19.816;2022-08-19T10:49:59;30.34;58.90
36244;DHT22;22284;49.956;19.816;2022-08-19T10:53:18;30.38;58.83
36244;DHT22;22284;49.956;19.816;2022-08-19T10:56:22;30.48;59.93
36244;DHT22;22284;49.956;19.816;2022-08-19T10:59:41;30.52;59.63
36244;DHT22;22284;49.956;19.816;2022-08-19T11:02:42;30.56;59.32
36244;DHT22;22284;49.956;19.816;2022-08-19T11:05:43;30.59;59.43
36244;DHT22;22284;49.956;19.816;2022-08-19T11:08:44;30.62;59.51
36244;DHT22;22284;49.956;19.816;2022-08-19T11:11:45;30.65;59.04
36244;DHT22;22284;49.956;19.816;2022-08-19T11:14:48;30.65;59.86
36244;DHT22;22284;49.956;19.816;2022-08-19T11:17:51;30.66;59.86
36244;DHT22;22284;49.956;19.816;2022-08-19T11:20:54;30.70;59.21
36244;DHT22;22284;49.956;19.816;2022-08-19T11:23:58;30.70;58.50
36244;DHT22;22284;49.956;19.816;2022-08-19T11:27:08;30.76;59.24
36244;DHT22;22284;49.956;19.816;2022-08-19T11:30:12;30.80;58.39
36244;DHT22;22284;49.956;19.816;2022-08-19T11:33:13;30.87;58.43
36244;DHT22;22284;49.956;19.816;2022-08-19T11:36:14;30.91;58.76
36244;DHT22;22284;49.956;19.816;2022-08-19T11:39:21;30.94;58.91
36244;DHT22;22284;49.956;19.816;2022-08-19T11:42:22;30.98;58.60
36244;DHT22;22284;49.956;19.816;2022-08-19T11:45:42;31.01;58.69
36244;DHT22;22284;49.956;19.816;2022-08-19T11:48:44;31.05;58.34
36244;DHT22;22284;49.956;19.816;2022-08-19T11:51:46;31.08;58.08
36244;DHT22;22284;49.956;19.816;2022-08-19T11:54:48;31.13;58.11
36244;DHT22;22284;49.956;19.816;2022-08-19T11:57:50;31.15;57.89
36244;DHT22;22284;49.956;19.816;2022-08-19T12:00:52;31.17;57.40
36244;DHT22;22284;49.956;19.816;2022-08-19T12:03:55;31.20;56.22
36244;DHT22;22284;49.956;19.816;2022-08-19T12:06:56;31.21;56.17
36244;DHT22;22284;49.956;19.816;2022-08-19T12:09:57;31.20;56.38
36244;DHT22;22284;49.956;19.816;2022-08-19T12:12:58;31.18;56.35
36244;DHT22;22284;49.956;19.816;2022-08-19T12:15:59;31.17;55.49
36244;DHT22;22284;49.956;19.816;2022-08-19T12:19:03;31.15;55.91
36244;DHT22;22284;49.956;19.816;2022-08-19T12:22:05;31.15;55.61
36244;DHT22;22284;49.956;19.816;2022-08-19T12:25:11;31.15;55.29
36244;DHT22;22284;49.956;19.816;2022-08-19T12:28:12;31.15;55.24
36244;DHT22;22284;49.956;19.816;2022-08-19T12:31:13;31.17;53.78
36244;DHT22;22284;49.956;19.816;2022-08-19T12:34:15;31.15;55.19
36244;DHT22;22284;49.956;19.816;2022-08-19T12:37:16;31.15;54.93
36244;DHT22;22284;49.956;19.816;2022-08-19T12:40:17;31.17;54.89
36244;DHT22;22284;49.956;19.816;2022-08-19T12:43:18;31.17;54.56
36244;DHT22;22284;49.956;19.816;2022-08-19T12:46:20;31.14;54.23
36244;DHT22;22284;49.956;19.816;2022-08-19T12:49:21;31.15;52.02
36244;DHT22;22284;49.956;19.816;2022-08-19T12:52:25;31.18;52.22
36244;DHT22;22284;49.956;19.816;2022-08-19T12:55:27;31.20;52.07
36244;DHT22;22284;49.956;19.816;2022-08-19T12:58:29;31.24;52.12
36244;DHT22;22284;49.956;19.816;2022-08-19T13:01:30;31.22;51.33
36244;DHT22;22284;49.956;19.816;2022-08-19T13:04:35;31.22;51.59
36244;DHT22;22284;49.956;19.816;2022-08-19T13:07:38;31.25;51.81
36244;DHT22;22284;49.956;19.816;2022-08-19T13:10:40;31.25;51.31
36244;DHT22;22284;49.956;19.816;2022-08-19T13:13:43;31.28;50.89
36244;DHT22;22284;49.956;19.816;2022-08-19T13:16:44;31.31;50.92
36244;DHT22;22284;49.956;19.816;2022-08-19T13:19:45;31.32;51.32
36244;DHT22;22284;49.956;19.816;2022-08-19T13:22:47;31.36;51.08
36244;DHT22;22284;49.956;19.816;2022-08-19T13:26:00;31.36;50.01
36244;DHT22;22284;49.956;19.816;2022-08-19T13:29:01;31.36;49.75
36244;DHT22;22284;49.956;19.816;2022-08-19T13:32:20;31.36;50.14
36244;DHT22;22284;49.956;19.816;2022-08-19T13:35:45;31.35;48.78
36244;DHT22;22284;49.956;19.816;2022-08-19T13:38:46;31.32;48.94
36244;DHT22;22284;49.956;19.816;2022-08-19T13:41:47;31.32;48.87
36244;DHT22;22284;49.956;19.816;2022-08-19T13:44:49;31.36;49.24
36244;DHT22;22284;49.956;19.816;2022-08-19T13:47:53;31.35;48.58
36244;DHT22;22284;49.956;19.816;2022-08-19T13:50:54;31.32;49.52
36244;DHT22;22284;49.956;19.816;2022-08-19T13:53:56;31.33;49.72
36244;DHT22;22284;49.956;19.816;2022-08-19T13:56:57;31.32;49.76
36244;DHT22;22284;49.956;19.816;2022-08-19T13:59:59;31.35;49.74
36244;DHT22;22284;49.956;19.816;2022-08-19T14:02:59;31.33;49.42
36244;DHT22;22284;49.956;19.816;2022-08-19T14:06:01;31.35;50.54
36244;DHT22;22284;49.956;19.816;2022-08-19T14:09:02;31.35;50.03
36244;DHT22;22284;49.956;19.816;2022-08-19T14:12:04;31.32;49.91
36244;DHT22;22284;49.956;19.816;2022-08-19T14:15:09;31.32;49.94
36244;DHT22;22284;49.956;19.816;2022-08-19T14:18:10;31.33;49.67
36244;DHT22;22284;49.956;19.816;2022-08-19T14:21:23;31.33;49.81
36244;DHT22;22284;49.956;19.816;2022-08-19T14:24:24;31.29;49.91
36244;DHT22;22284;49.956;19.816;2022-08-19T14:27:25;31.31;50.00
36244;DHT22;22284;49.956;19.816;2022-08-19T14:30:31;31.32;50.47
36244;DHT22;22284;49.956;19.816;2022-08-19T14:33:32;31.33;50.96
36244;DHT22;22284;49.956;19.816;2022-08-19T14:36:33;31.33;51.17
36244;DHT22;22284;49.956;19.816;2022-08-19T14:39:35;31.38;51.43
36244;DHT22;22284;49.956;19.816;2022-08-19T14:42:36;31.36;51.63
36244;DHT22;22284;49.956;19.816;2022-08-19T14:45:38;31.38;51.70
36244;DHT22;22284;49.956;19.816;2022-08-19T14:48:40;31.41;51.72
36244;DHT22;22284;49.956;19.816;2022-08-19T14:51:41;31.41;52.10
36244;DHT22;22284;49.956;19.816;2022-08-19T14:54:42;31.42;52.11
36244;DHT22;22284;49.956;19.816;2022-08-19T14:57:43;31.41;52.28
36244;DHT22;22284;49.956;19.816;2022-08-19T15:00:45;31.41;52.59
36244;DHT22;22284;49.956;19.816;2022-08-19T15:03:47;31.41;52.84
36244;DHT22;22284;49.956;19.816;2022-08-19T15:06:48;31.35;53.06
36244;DHT22;22284;49.956;19.816;2022-08-19T15:09:51;31.29;53.32
36244;DHT22;22284;49.956;19.816;2022-08-19T15:12:52;31.24;53.55
36244;DHT22;22284;49.956;19.816;2022-08-19T15:15:54;31.26;53.62
36244;DHT22;22284;49.956;19.816;2022-08-19T15:18:57;31.24;53.48
36244;DHT22;22284;49.956;19.816;2022-08-19T15:22:00;31.25;53.61
36244;DHT22;22284;49.956;19.816;2022-08-19T15:25:06;31.25;53.76
36244;DHT22;22284;49.956;19.816;2022-08-19T15:28:08;31.26;53.90
36244;DHT22;22284;49.956;19.816;2022-08-19T15:31:12;31.26;54.13
36244;DHT22;22284;49.956;19.816;2022-08-19T15:34:13;31.24;54.11
36244;DHT22;22284;49.956;19.816;2022-08-19T15:37:14;31.25;54.12
36244;DHT22;22284;49.956;19.816;2022-08-19T15:40:16;31.25;54.40
36244;DHT22;22284;49.956;19.816;2022-08-19T15:43:19;31.26;54.48
36244;DHT22;22284;49.956;19.816;2022-08-19T15:46:26;31.25;54.61
36244;DHT22;22284;49.956;19.816;2022-08-19T15:49:28;31.25;54.55
36244;DHT22;22284;49.956;19.816;2022-08-19T15:52:29;31.21;54.53
36244;DHT22;22284;49.956;19.816;2022-08-19T15:55:34;31.15;54.44
36244;DHT22;22284;49.956;19.816;2022-08-19T15:58:36;31.11;54.41
36244;DHT22;22284;49.956;19.816;2022-08-19T16:01:56;31.04;54.44
36244;DHT22;22284;49.956;19.816;2022-08-19T16:05:20;30.95;54.55
36244;DHT22;22284;49.956;19.816;2022-08-19T16:08:40;30.84;54.83
36244;DHT22;22284;49.956;19.816;2022-08-19T16:11:41;30.77;54.88
36244;DHT22;22284;49.956;19.816;2022-08-19T16:14:43;30.70;55.12
36244;DHT22;22284;49.956;19.816;2022-08-19T16:17:44;30.59;55.25
36244;DHT22;22284;49.956;19.816;2022-08-19T16:20:45;30.51;55.41
36244;DHT22;22284;49.956;19.816;2022-08-19T16:23:48;30.43;55.73
36244;DHT22;22284;49.956;19.816;2022-08-19T16:26:49;30.31;55.91
36244;DHT22;22284;49.956;19.816;2022-08-19T16:29:50;30.19;56.15
36244;DHT22;22284;49.956;19.816;2022-08-19T16:32:52;30.09;56.44
36244;DHT22;22284;49.956;19.816;2022-08-19T16:35:53;30.01;56.65
36244;DHT22;22284;49.956;19.816;2022-08-19T16:38:55;29.89;56.87
36244;DHT22;22284;49.956;19.816;2022-08-19T16:41:55;29.79;57.17
36244;DHT22;22284;49.956;19.816;2022-08-19T16:44:57;29.69;57.55
36244;DHT22;22284;49.956;19.816;2022-08-19T16:47:58;29.60;57.81
36244;DHT22;22284;49.956;19.816;2022-08-19T16:51:00;29.49;58.02
36244;DHT22;22284;49.956;19.816;2022-08-19T16:54:03;29.42;58.17
36244;DHT22;22284;49.956;19.816;2022-08-19T16:57:05;29.29;58.39
36244;DHT22;22284;49.956;19.816;2022-08-19T17:00:07;29.21;58.49
36244;DHT22;22284;49.956;19.816;2022-08-19T17:03:10;29.12;58.82
36244;DHT22;22284;49.956;19.816;2022-08-19T17:06:16;29.02;59.24
36244;DHT22;22284;49.956;19.816;2022-08-19T17:09:18;28.91;60.04
36244;DHT22;22284;49.956;19.816;2022-08-19T17:12:19;28.84;60.35
36244;DHT22;22284;49.956;19.816;2022-08-19T17:15:20;28.73;60.20
36244;DHT22;22284;49.956;19.816;2022-08-19T17:18:22;28.65;60.20
36244;DHT22;22284;49.956;19.816;2022-08-19T17:21:27;28.57;60.14
36244;DHT22;22284;49.956;19.816;2022-08-19T17:24:28;28.48;60.25
36244;DHT22;22284;49.956;19.816;2022-08-19T17:27:29;28.43;60.22
36244;DHT22;22284;49.956;19.816;2022-08-19T17:30:31;28.35;60.39
36244;DHT22;22284;49.956;19.816;2022-08-19T17:33:33;28.25;60.45
36244;DHT22;22284;49.956;19.816;2022-08-19T17:36:34;28.21;60.56
36244;DHT22;22284;49.956;19.816;2022-08-19T17:39:35;28.15;60.45
36244;DHT22;22284;49.956;19.816;2022-08-19T17:42:38;28.10;60.52
36244;DHT22;22284;49.956;19.816;2022-08-19T17:45:42;28.05;60.38
36244;DHT22;22284;49.956;19.816;2022-08-19T17:48:43;28.01;60.35
36244;DHT22;22284;49.956;19.816;2022-08-19T17:51:46;28.00;60.27
36244;DHT22;22284;49.956;19.816;2022-08-19T17:54:49;27.93;60.14
36244;DHT22;22284;49.956;19.816;2022-08-19T17:57:50;27.94;60.02
36244;DHT22;22284;49.956;19.816;2022-08-19T18:00:52;27.91;59.88
36244;DHT22;22284;49.956;19.816;2022-08-19T18:03:55;27.90;59.74
36244;DHT22;22284;49.956;19.816;2022-08-19T18:06:56;27.88;59.65
36244;DHT22;22284;49.956;19.816;2022-08-19T18:09:57;27.86;59.62
36244;DHT22;22284;49.956;19.816;2022-08-19T18:12:58;27.84;59.57
36244;DHT22;22284;49.956;19.816;2022-08-19T18:16:02;27.84;59.50
36244;DHT22;22284;49.956;19.816;2022-08-19T18:19:03;27.83;59.63
36244;DHT22;22284;49.956;19.816;2022-08-19T18:22:04;27.80;59.74
36244;DHT22;22284;49.956;19.816;2022-08-19T18:25:14;27.77;59.90
36244;DHT22;22284;49.956;19.816;2022-08-19T18:28:17;27.75;59.83
36244;DHT22;22284;49.956;19.816;2022-08-19T18:31:19;27.73;59.77
36244;DHT22;22284;49.956;19.816;2022-08-19T18:34:20;27.70;59.93
36244;DHT22;22284;49.956;19.816;2022-08-19T18:37:21;27.65;60.51
36244;DHT22;22284;49.956;19.816;2022-08-19T18:40:27;27.58;62.18
36244;DHT22;22284;49.956;19.816;2022-08-19T18:43:47;27.45;62.69
36244;DHT22;22284;49.956;19.816;2022-08-19T18:47:07;27.29;63.94
36244;DHT22;22284;49.956;19.816;2022-08-19T18:50:26;27.07;64.25
36244;DHT22;22284;49.956;19.816;2022-08-19T18:53:31;26.90;64.70
36244;DHT22;22284;49.956;19.816;2022-08-19T18:56:32;26.69;65.09
36244;DHT22;22284;49.956;19.816;2022-08-19T18:59:34;26.48;65.40
36244;DHT22;22284;49.956;19.816;2022-08-19T19:02:37;26.28;66.25
36244;DHT22;22284;49.956;19.816;2022-08-19T19:05:38;26.07;66.92
36244;DHT22;22284;49.956;19.816;2022-08-19T19:08:40;25.84;67.84
36244;DHT22;22284;49.956;19.816;2022-08-19T19:11:45;25.68;68.04
36244;DHT22;22284;49.956;19.816;2022-08-19T19:14:48;25.50;69.00
36244;DHT22;22284;49.956;19.816;2022-08-19T19:17:49;25.38;70.14